Time;durP1;ratioP1;P1;durP2;ratioP2;P2;SDS_P1;SDS_P2;PMS_P1;PMS_P2;Temp;Humidity;BMP_temperature;BMP_pressure;BME280_temperature;BME280_humidity;BME280_pressure;Samples;Min_cycle;Max_cycle;Signal;HPM_P1;HPM_P2
2021/01/03 00:01:01;;;;;;;95.40;31.10;;;;;;;-0.19;86.65;100945.77;5295766;54;1141038;-92
2021/01/03 00:06:13;;;;;;;62.43;19.03;;;;;;;-0.17;86.68;100931.43;5294747;54;1140372;-90
2021/01/03 00:11:18;;;;;;;76.43;24.30;;;;;;;-0.21;86.50;100922.00;5296598;54;1140578;-92
2021/01/03 00:16:33;;;;;;;86.10;25.20;;;;;;;-0.20;86.57;100895.11;5290761;54;1140520;-90
2021/01/03 00:22:00;;;;;;;86.10;26.77;;;;;;;-0.25;86.64;100877.48;5290497;54;1140681;-92
2021/01/03 00:27:06;;;;;;;54.80;17.83;;;;;;;-0.26;86.57;100870.13;5331899;54;1140396;-92
2021/01/03 00:32:11;;;;;;;55.80;18.12;;;;;;;-0.22;86.64;100872.20;5297245;54;1140407;-92
2021/01/03 00:37:24;;;;;;;71.10;20.77;;;;;;;-0.23;86.65;100879.16;5319023;54;1140265;-92
2021/01/03 00:42:32;;;;;;;66.57;20.30;;;;;;;-0.26;86.48;100881.83;5289630;54;1140594;-92
2021/01/03 00:47:40;;;;;;;62.00;18.77;;;;;;;-0.26;86.58;100886.17;5323363;54;1140307;-92
2021/01/03 00:52:48;;;;;;;24.60;8.67;;;;;;;-0.27;86.66;100895.72;5297274;54;1140321;-92
2021/01/03 00:57:53;;;;;;;70.20;20.23;;;;;;;-0.25;86.60;100894.37;5292601;54;1138586;-91
2021/01/03 01:03:01;;;;;;;63.57;21.57;;;;;;;-0.27;86.65;100897.02;5346309;54;1140319;-91
2021/01/03 01:08:07;;;;;;;92.55;27.70;;;;;;;-0.25;86.60;100904.77;5293726;54;1140857;-92
2021/01/03 01:13:14;;;;;;;81.92;25.77;;;;;;;-0.25;86.53;100904.77;5290666;54;1140326;-91
2021/01/03 01:18:20;;;;;;;96.85;29.45;;;;;;;-0.25;86.60;100892.62;5312808;54;1140298;-92
2021/01/03 01:23:25;;;;;;;80.67;23.13;;;;;;;-0.30;86.66;100884.09;5295166;54;1140440;-92
2021/01/03 01:28:31;;;;;;;101.50;28.73;;;;;;;-0.23;86.70;100885.65;5313922;54;1140377;-91
2021/01/03 01:33:37;;;;;;;74.73;20.77;;;;;;;-0.20;86.80;100898.57;5294387;54;1143039;-91
2021/01/03 01:38:42;;;;;;;104.10;30.80;;;;;;;-0.17;86.58;100897.64;5336860;54;1140370;-93
2021/01/03 01:43:48;;;;;;;73.40;20.70;;;;;;;-0.18;86.65;100897.23;5302020;54;1142805;-93
2021/01/03 01:48:53;;;;;;;77.33;20.27;;;;;;;-0.16;86.62;100891.55;5284946;54;1140388;-92
2021/01/03 01:54:18;;;;;;;103.33;33.00;;;;;;;-0.17;86.57;100882.04;5296968;54;1140373;-90
2021/01/03 01:59:43;;;;;;;98.20;27.60;;;;;;;-0.20;86.92;100873.02;5287009;54;1142553;-92
2021/01/03 02:05:10;;;;;;;73.73;20.33;;;;;;;-0.18;86.68;100878.59;5298125;54;1140557;-92
2021/01/03 02:10:33;;;;;;;113.62;34.58;;;;;;;-0.16;86.79;100876.80;5285640;54;1140479;-92
2021/01/03 02:15:39;;;;;;;66.87;18.27;;;;;;;-0.17;86.95;100884.19;5333670;54;1142541;-92
2021/01/03 02:21:03;;;;;;;61.07;18.20;;;;;;;-0.19;86.68;100880.78;5288233;54;1140553;-90
2021/01/03 02:26:12;;;;;;;54.90;13.13;;;;;;;-0.21;86.77;100877.37;5316487;54;1140396;-91
2021/01/03 02:31:23;;;;;;;115.57;31.87;;;;;;;-0.23;87.12;100874.40;5307079;54;1140462;-91
2021/01/03 02:36:38;;;;;;;109.23;29.67;;;;;;;-0.20;87.12;100884.27;5302063;54;1142629;-90
2021/01/03 02:41:44;;;;;;;89.17;22.13;;;;;;;-0.17;86.91;100884.19;5297389;54;1142516;-91
2021/01/03 02:46:52;;;;;;;113.00;32.30;;;;;;;-0.17;86.93;100877.70;5288003;54;1140859;-90
2021/01/03 02:51:58;;;;;;;83.17;22.10;;;;;;;-0.15;86.91;100879.77;5287119;54;1142820;-90
2021/01/03 02:57:04;;;;;;;119.17;31.73;;;;;;;-0.15;86.94;100871.13;5291400;54;1140913;-91
2021/01/03 03:02:10;;;;;;;147.93;42.33;;;;;;;-0.15;86.91;100851.19;5305363;54;1142736;-90
2021/01/03 03:07:16;;;;;;;86.50;23.98;;;;;;;-0.12;87.14;100865.84;5376171;54;1142353;-90
2021/01/03 03:12:22;;;;;;;127.37;38.37;;;;;;;-0.10;87.17;100861.45;5293919;54;1140353;-91
2021/01/03 03:17:28;;;;;;;95.87;26.63;;;;;;;-0.08;87.19;100863.57;5310865;54;1142496;-90
2021/01/03 03:22:33;;;;;;;104.17;25.13;;;;;;;-0.08;86.93;100864.88;5309251;54;1140317;-90
2021/01/03 03:27:41;;;;;;;75.87;19.23;;;;;;;-0.05;86.95;100853.09;5317536;54;1142555;-90
2021/01/03 03:32:51;;;;;;;90.73;21.00;;;;;;;-0.09;87.08;100857.52;5296221;54;1140306;-91
2021/01/03 03:37:54;;;;;;;135.07;36.23;;;;;;;-0.08;87.13;100857.92;5307316;54;1140350;-90
2021/01/03 03:43:02;;;;;;;105.30;28.40;;;;;;;-0.05;87.13;100859.59;5328881;54;1142642;-89
2021/01/03 03:48:08;;;;;;;138.30;39.00;;;;;;;-0.03;87.12;100858.66;5300452;54;1142910;-91
2021/01/03 03:53:15;;;;;;;108.10;26.10;;;;;;;-0.03;87.04;100859.11;5315409;54;1142550;-90
2021/01/03 03:58:21;;;;;;;114.20;30.97;;;;;;;0.00;87.09;100853.83;5264970;54;1142960;-90
2021/01/03 04:03:26;;;;;;;93.87;22.33;;;;;;;-0.01;87.11;100844.31;5307916;54;1140623;-91
2021/01/03 04:08:32;;;;;;;102.67;26.27;;;;;;;-0.03;86.94;100839.61;5320959;54;1140692;-91
2021/01/03 04:13:38;;;;;;;100.20;25.67;;;;;;;-0.03;87.01;100831.80;5316480;54;1142538;-90
2021/01/03 04:18:45;;;;;;;107.03;25.67;;;;;;;-0.05;87.26;100820.59;5259092;54;1142489;-90
2021/01/03 04:23:50;;;;;;;56.60;13.73;;;;;;;-0.07;87.40;100811.98;5233519;55;1143009;-91
2021/01/03 04:28:56;;;;;;;83.60;20.17;;;;;;;-0.08;87.44;100811.58;5287197;55;1140631;-90
2021/01/03 04:34:02;;;;;;;116.13;30.43;;;;;;;-0.12;87.39;100819.05;5289827;55;1140301;-88
2021/01/03 04:39:07;;;;;;;121.85;32.58;;;;;;;-0.10;87.53;100817.27;5281548;55;1142508;-89
2021/01/03 04:44:20;;;;;;;92.73;29.13;;;;;;;-0.08;87.43;100816.78;5283020;54;1142870;-90
2021/01/03 04:49:38;;;;;;;73.28;20.90;;;;;;;-0.01;87.46;100818.31;5279961;55;1140284;-89
2021/01/03 04:54:54;;;;;;;101.67;24.97;;;;;;;-0.01;87.48;100830.88;5283492;55;1140309;-89
2021/01/03 05:00:01;;;;;;;73.60;20.43;;;;;;;-0.01;87.49;100836.52;5321304;55;1142566;-91
2021/01/03 05:05:30;;;;;;;80.75;24.37;;;;;;;0.04;87.52;100832.46;5295162;55;1140531;-90
2021/01/03 05:10:35;;;;;;;100.83;28.10;;;;;;;0.01;87.63;100837.30;5279784;55;1138263;-90
2021/01/03 05:15:41;;;;;;;104.07;29.97;;;;;;;0.06;87.55;100841.92;5243553;54;1140354;-90
2021/01/03 05:20:55;;;;;;;107.37;30.93;;;;;;;0.04;87.72;100848.91;5191816;55;1140377;-91
2021/01/03 05:26:03;;;;;;;51.73;14.20;;;;;;;0.06;87.64;100851.47;5199469;56;1204809;-90
2021/01/03 05:31:19;;;;;;;105.55;30.88;;;;;;;0.03;87.58;100845.05;5193549;56;1138653;-90
2021/01/03 05:36:51;;;;;;;82.57;26.17;;;;;;;0.05;87.48;100837.62;5189206;55;1140339;-89
2021/01/03 05:42:22;;;;;;;74.50;22.17;;;;;;;0.08;87.74;100850.53;5198052;56;1138326;-89
2021/01/03 05:47:41;;;;;;;66.93;15.50;;;;;;;0.08;87.54;100848.38;5044859;57;1138438;-90
2021/01/03 05:52:55;;;;;;;84.05;22.32;;;;;;;0.10;87.62;100833.59;5013167;57;1138390;-90
2021/01/03 05:58:27;;;;;;;52.70;14.70;;;;;;;0.06;87.82;100836.72;5070350;57;1138358;-90
2021/01/03 06:03:36;;;;;;;69.73;21.40;;;;;;;0.07;87.75;100831.08;5054409;57;1138467;-89
2021/01/03 06:08:44;;;;;;;66.03;18.70;;;;;;;0.05;88.03;100819.86;5040014;57;1138380;-89
2021/01/03 06:13:59;;;;;;;74.53;20.60;;;;;;;0.09;87.87;100824.94;5051109;57;1138283;-90
2021/01/03 06:19:12;;;;;;;62.50;19.87;;;;;;;0.09;87.79;100813.69;5117764;56;1138342;-91
2021/01/03 06:24:29;;;;;;;39.00;12.58;;;;;;;0.06;87.80;100809.42;5191023;54;1139030;-92
2021/01/03 06:29:48;;;;;;;82.03;24.63;;;;;;;0.02;87.75;100801.30;5327071;54;1139263;-91
2021/01/03 06:35:34;;;;;;;75.77;26.53;;;;;;;0.02;87.75;100801.30;5278591;54;1138404;-90
2021/01/03 06:40:53;;;;;;;75.93;22.70;;;;;;;0.09;87.89;100804.58;5302466;54;1138206;-91
2021/01/03 06:46:36;;;;;;;51.03;18.77;;;;;;;0.13;87.92;100808.80;5307097;54;1138671;-90
2021/01/03 06:52:04;;;;;;;62.03;17.73;;;;;;;0.11;87.80;100798.44;5325713;54;1138395;-91
2021/01/03 06:58:12;;;;;;;49.03;16.03;;;;;;;0.10;87.68;100799.78;5318366;54;1138346;-91
2021/01/03 07:03:31;;;;;;;45.92;16.35;;;;;;;0.09;87.76;100797.63;5339671;54;1138403;-90
2021/01/03 07:08:53;;;;;;;62.37;24.43;;;;;;;0.08;87.84;100798.53;5312675;54;1138672;-90
2021/01/03 07:13:58;;;;;;;43.67;13.53;;;;;;;0.06;88.23;100802.06;5342485;54;1138187;-90
2021/01/03 07:19:06;;;;;;;60.60;19.90;;;;;;;0.07;88.03;100790.77;5344738;54;1138173;-91
2021/01/03 07:24:33;;;;;;;52.50;17.67;;;;;;;0.06;87.89;100796.87;5234609;55;1138585;-92
2021/01/03 07:29:53;;;;;;;47.70;16.57;;;;;;;0.07;88.00;100794.22;5272812;55;1139283;-91
2021/01/03 07:35:09;;;;;;;70.17;20.10;;;;;;;0.10;87.91;100794.14;5265674;55;1138358;-91
2021/01/03 07:40:21;;;;;;;47.10;15.32;;;;;;;0.10;88.12;100788.09;5294508;55;1138241;-92
2021/01/03 07:45:37;;;;;;;57.73;20.20;;;;;;;0.13;87.95;100794.50;5280882;55;1138421;-91
2021/01/03 07:50:42;;;;;;;50.83;19.27;;;;;;;0.12;88.38;100792.80;5268392;55;1138186;-91
2021/01/03 07:55:48;;;;;;;51.53;19.00;;;;;;;0.17;88.17;100795.64;5281563;55;1138392;-91
2021/01/03 08:01:01;;;;;;;50.77;17.07;;;;;;;0.19;88.04;100796.89;5266928;54;1138464;-91
2021/01/03 08:06:11;;;;;;;48.40;19.33;;;;;;;0.23;87.92;100792.01;5296596;55;1138568;-90
2021/01/03 08:11:37;;;;;;;71.73;27.13;;;;;;;0.22;87.96;100802.01;5310612;55;1138332;-92
2021/01/03 08:16:43;;;;;;;50.13;18.57;;;;;;;0.22;88.16;100815.02;5239513;55;1138314;-92
2021/01/03 08:21:58;;;;;;;45.40;16.20;;;;;;;0.19;87.93;100807.30;5294533;54;1138777;-92
2021/01/03 08:27:24;;;;;;;56.77;19.33;;;;;;;0.20;87.85;100799.45;5311894;54;1138824;-91
2021/01/03 08:32:38;;;;;;;48.37;19.30;;;;;;;0.20;88.01;100812.45;5359736;54;1138384;-91
2021/01/03 08:37:51;;;;;;;37.53;14.97;;;;;;;0.21;88.12;100810.70;5233246;54;1138191;-91
2021/01/03 08:43:06;;;;;;;45.13;18.33;;;;;;;0.22;88.11;100802.01;5297047;54;1138491;-93
2021/01/03 08:48:25;;;;;;;28.25;9.88;;;;;;;0.23;88.17;100800.66;5368781;54;1138237;-91
2021/01/03 08:53:35;;;;;;;52.67;18.63;;;;;;;0.22;87.99;100788.55;5299035;54;1136204;-89
2021/01/03 08:58:42;;;;;;;50.63;17.77;;;;;;;0.27;88.04;100785.82;5315466;54;1138916;-88
2021/01/03 09:03:54;;;;;;;48.40;18.73;;;;;;;0.30;88.05;100786.59;5292588;54;1138431;-88
2021/01/03 09:09:13;;;;;;;45.47;16.40;;;;;;;0.35;88.03;100797.67;5299551;54;1138687;-88
2021/01/03 09:14:46;;;;;;;51.63;19.50;;;;;;;0.35;87.93;100804.62;5296398;54;1138659;-88
2021/01/03 09:20:14;;;;;;;35.53;14.53;;;;;;;0.37;88.07;100807.19;5313566;54;1138338;-90
2021/01/03 09:25:27;;;;;;;58.00;22.52;;;;;;;0.35;87.97;100798.12;5277794;55;1139056;-88
2021/01/03 09:30:37;;;;;;;54.40;23.42;;;;;;;0.35;87.90;100808.53;5281340;55;1138656;-88
2021/01/03 09:36:02;;;;;;;53.97;22.87;;;;;;;0.34;87.79;100805.52;5276662;55;1138212;-89
2021/01/03 09:41:28;;;;;;;33.50;12.68;;;;;;;0.37;87.84;100807.19;5286089;54;1147719;-90
2021/01/03 09:46:53;;;;;;;57.03;21.40;;;;;;;0.31;87.71;100797.36;5280051;55;1138729;-88
2021/01/03 09:52:37;;;;;;;33.83;14.37;;;;;;;0.35;87.73;100796.37;5283170;55;1138469;-87
2021/01/03 09:57:59;;;;;;;34.78;14.50;;;;;;;0.38;87.82;100800.64;5241515;55;1138297;-89
2021/01/03 10:03:37;;;;;;;69.10;32.03;;;;;;;0.40;87.79;100805.80;5277115;55;1138248;-89
2021/01/03 10:08:44;;;;;;;133.87;46.73;;;;;;;0.37;87.80;100809.78;5279238;54;1138756;-89
2021/01/03 10:13:58;;;;;;;61.23;24.90;;;;;;;0.37;87.93;100818.89;5282494;54;1140625;-89
2021/01/03 10:19:15;;;;;;;45.90;21.43;;;;;;;0.39;87.88;100826.20;5278062;54;1138337;-89
2021/01/03 10:24:25;;;;;;;93.40;41.73;;;;;;;0.40;88.18;100822.70;5327657;54;1138284;-90
2021/01/03 10:29:31;;;;;;;48.43;19.90;;;;;;;0.43;88.00;100822.17;5299752;54;1138392;-90
2021/01/03 10:34:37;;;;;;;104.55;36.25;;;;;;;0.47;87.96;100809.89;5292706;54;1138308;-91
2021/01/03 10:39:44;;;;;;;503.47;224.43;;;;;;;0.46;87.81;100816.02;5299762;54;1140497;-91
2021/01/03 10:44:50;;;;;;;163.90;88.00;;;;;;;0.46;87.97;100817.33;5314341;54;1142499;-90
2021/01/03 10:49:56;;;;;;;71.97;24.17;;;;;;;0.49;88.14;100813.30;5297842;54;1140822;-89
2021/01/03 10:55:01;;;;;;;25.63;11.37;;;;;;;0.46;88.12;100818.14;5296728;54;1138872;-88
2021/01/03 11:00:10;;;;;;;35.28;13.18;;;;;;;0.46;87.94;100801.23;5310016;54;1138890;-89
2021/01/03 11:05:18;;;;;;;34.83;14.80;;;;;;;0.46;88.19;100792.13;5313614;54;1138489;-90
2021/01/03 11:10:23;;;;;;;39.43;15.47;;;;;;;0.44;87.87;100793.95;5299931;54;1138240;-90
2021/01/03 11:15:29;;;;;;;39.83;16.80;;;;;;;0.47;87.92;100784.72;5309128;54;1138610;-89
2021/01/03 11:20:37;;;;;;;29.87;12.47;;;;;;;0.49;88.07;100776.88;5282773;54;1138477;-89
2021/01/03 11:25:47;;;;;;;31.93;12.63;;;;;;;0.49;87.75;100766.47;5323990;54;1138724;-90
2021/01/03 11:30:52;;;;;;;29.40;14.23;;;;;;;0.51;87.82;100764.66;5310382;54;1138771;-91
2021/01/03 11:35:58;;;;;;;44.63;18.00;;;;;;;0.52;87.75;100758.11;5300792;54;1138540;-90
2021/01/03 11:41:04;;;;;;;43.60;16.57;;;;;;;0.52;87.91;100753.36;5314237;53;1138348;-93
2021/01/03 11:46:10;;;;;;;54.87;25.37;;;;;;;0.53;87.79;100745.95;5330090;54;1138977;-90
2021/01/03 11:51:17;;;;;;;45.87;20.67;;;;;;;0.53;87.67;100739.00;5300782;54;1138486;-89
2021/01/03 11:56:25;;;;;;;35.28;15.03;;;;;;;0.51;87.61;100738.20;5320655;54;1146252;-93
2021/01/03 12:01:31;;;;;;;33.20;15.43;;;;;;;0.53;87.71;100725.14;5304332;54;1138752;-92
2021/01/03 12:06:37;;;;;;;36.87;15.53;;;;;;;0.53;87.76;100719.94;5302137;54;1138384;-92
2021/01/03 12:11:42;;;;;;;30.05;12.07;;;;;;;0.54;87.79;100713.83;5307370;54;1138374;-93
2021/01/03 12:16:53;;;;;;;44.03;19.70;;;;;;;0.54;87.79;100715.13;5323357;54;1138364;-92
2021/01/03 12:22:01;;;;;;;46.17;20.97;;;;;;;0.53;87.68;100712.98;5313742;54;1138433;-92
2021/01/03 12:27:09;;;;;;;34.07;13.30;;;;;;;0.53;87.79;100722.09;5318927;54;1138129;-90
2021/01/03 12:32:16;;;;;;;40.73;14.10;;;;;;;0.50;87.89;100718.73;5312200;54;1138279;-91
2021/01/03 12:37:22;;;;;;;37.53;15.30;;;;;;;0.48;87.85;100724.42;5306363;54;1138370;-92
2021/01/03 12:42:27;;;;;;;37.83;16.20;;;;;;;0.49;87.98;100724.38;5338251;54;1138344;-91
2021/01/03 12:47:33;;;;;;;37.77;16.17;;;;;;;0.49;88.04;100729.58;5326436;54;1138307;-92
2021/01/03 12:52:39;;;;;;;58.43;22.57;;;;;;;0.56;88.01;100725.89;5314279;54;1138194;-92
2021/01/03 12:57:44;;;;;;;33.63;12.90;;;;;;;0.53;87.93;100718.19;5360715;54;1138330;-90
2021/01/03 13:02:51;;;;;;;48.27;19.00;;;;;;;0.53;88.17;100715.58;5330551;54;1138220;-93
2021/01/03 13:07:56;;;;;;;26.83;10.70;;;;;;;0.55;88.11;100716.83;5306280;54;1138262;-91
2021/01/03 13:13:02;;;;;;;35.20;14.00;;;;;;;0.59;88.11;100717.99;5350415;54;1138129;-92
2021/01/03 13:18:08;;;;;;;29.67;11.53;;;;;;;0.55;87.98;100719.44;5303010;54;1138381;-91
2021/01/03 13:23:13;;;;;;;22.77;10.33;;;;;;;0.55;87.93;100711.63;5308878;54;1139018;-91
2021/01/03 13:28:19;;;;;;;30.53;13.17;;;;;;;0.55;87.94;100707.72;5319149;54;1138385;-91
2021/01/03 13:33:24;;;;;;;39.40;16.60;;;;;;;0.59;87.94;100710.64;5315831;54;1140238;-92
2021/01/03 13:38:30;;;;;;;38.37;15.80;;;;;;;0.60;88.00;100711.03;5329620;54;1138251;-91
2021/01/03 13:43:35;;;;;;;53.52;20.92;;;;;;;0.61;87.91;100705.75;5297630;54;1138641;-90
2021/01/03 13:48:41;;;;;;;41.13;17.00;;;;;;;0.62;87.83;100713.95;5303955;54;1138494;-91
2021/01/03 13:53:48;;;;;;;57.17;23.90;;;;;;;0.63;88.01;100707.00;5302186;54;1138657;-91
2021/01/03 13:58:55;;;;;;;56.87;22.53;;;;;;;0.61;88.25;100717.95;5294353;54;1138260;-90
2021/01/03 14:04:00;;;;;;;57.67;23.97;;;;;;;0.61;88.41;100725.27;5307259;54;1138321;-91
2021/01/03 14:09:08;;;;;;;45.80;20.80;;;;;;;0.64;88.08;100719.11;5303268;54;1138612;-91
2021/01/03 14:14:13;;;;;;;37.97;15.23;;;;;;;0.62;88.00;100712.66;5330517;54;1138216;-91
2021/01/03 14:19:19;;;;;;;37.30;13.83;;;;;;;0.60;88.15;100701.48;5293788;54;1138760;-90
2021/01/03 14:24:24;;;;;;;35.37;13.97;;;;;;;0.58;88.12;100703.73;5306930;54;1138300;-90
2021/01/03 14:29:36;;;;;;;41.33;16.65;;;;;;;0.59;88.77;100701.52;5272139;54;1138652;-90
2021/01/03 14:34:52;;;;;;;41.67;15.20;;;;;;;0.60;88.48;100711.03;5212621;55;1138701;-89
2021/01/03 14:40:01;;;;;;;34.63;13.50;;;;;;;0.59;88.34;100704.98;5183996;56;1138571;-88
2021/01/03 14:45:12;;;;;;;30.77;10.83;;;;;;;0.64;88.21;100706.10;5193584;55;1138514;-90
2021/01/03 14:50:34;;;;;;;40.93;16.23;;;;;;;0.60;88.24;100696.72;5199716;56;1138297;-89
2021/01/03 14:56:05;;;;;;;34.20;13.40;;;;;;;0.61;88.43;100692.73;5188006;54;1138205;-88
2021/01/03 15:01:17;;;;;;;56.50;25.83;;;;;;;0.65;88.26;100698.70;5058092;57;1138471;-89
2021/01/03 15:06:48;;;;;;;55.90;26.95;;;;;;;0.64;88.38;100704.80;5057054;57;1138296;-90
2021/01/03 15:12:01;;;;;;;18.73;8.23;;;;;;;0.68;88.25;100705.95;5194619;56;1138280;-89
2021/01/03 15:17:11;;;;;;;53.60;20.52;;;;;;;0.69;88.24;100701.16;5192344;54;1136209;-89
2021/01/03 15:22:20;;;;;;;49.03;20.30;;;;;;;0.68;88.14;100709.86;5191878;55;1138888;-90
2021/01/03 15:27:35;;;;;;;38.95;17.60;;;;;;;0.64;88.19;100703.05;5205164;55;1138228;-89
2021/01/03 15:32:48;;;;;;;69.13;27.03;;;;;;;0.73;88.24;100714.92;5264483;54;1138264;-89
2021/01/03 15:37:58;;;;;;;118.60;35.10;;;;;;;0.74;88.29;100717.08;5278376;54;1138685;-89
2021/01/03 15:49:36;;;;;;;;;;;;;;;;;;;;;
2021/01/03 15:54:42;;;;;;;147.53;44.07;;;;;;;0.73;88.18;100722.73;5209603;55;1140478;-88
2021/01/03 15:59:51;;;;;;;48.13;18.67;;;;;;;0.75;88.34;100718.33;5157950;55;1140824;-89
2021/01/03 16:05:00;;;;;;;44.97;19.33;;;;;;;0.73;88.56;100711.02;5172850;55;1138399;-88
2021/01/03 16:10:11;;;;;;;112.73;44.43;;;;;;;0.73;88.47;100712.77;5160420;55;1138291;-89
2021/01/03 16:15:18;;;;;;;38.47;17.03;;;;;;;0.76;88.27;100721.33;5173949;55;1140437;-89
2021/01/03 16:20:27;;;;;;;22.70;10.35;;;;;;;0.74;88.38;100723.12;5257615;54;1138557;-88
2021/01/03 16:25:47;;;;;;;32.38;11.95;;;;;;;0.72;88.47;100716.27;5309860;54;1138326;-88
2021/01/03 16:31:12;;;;;;;38.53;13.87;;;;;;;0.71;88.29;100723.23;5280730;54;1138438;-87
2021/01/03 16:36:57;;;;;;;45.60;22.47;;;;;;;0.71;88.31;100716.72;5299217;55;1138384;-88
2021/01/03 16:42:32;;;;;;;44.77;18.63;;;;;;;0.70;88.35;100718.92;5282892;55;1138222;-87
2021/01/03 16:47:57;;;;;;;28.90;11.90;;;;;;;0.75;88.44;100726.13;5315698;55;1138382;-87
2021/01/03 16:53:17;;;;;;;27.37;10.67;;;;;;;0.76;88.47;100723.93;5285071;55;1138374;-87
2021/01/03 16:59:03;;;;;;;25.67;9.67;;;;;;;0.76;88.45;100728.29;5283716;55;1138303;-89
2021/01/03 17:04:09;;;;;;;35.77;16.17;;;;;;;0.75;88.53;100730.04;5289469;55;1136208;-89
2021/01/03 17:09:49;;;;;;;24.95;10.78;;;;;;;0.74;88.49;100736.14;5261846;54;1138412;-89
2021/01/03 17:15:12;;;;;;;36.00;15.40;;;;;;;0.75;88.67;100737.84;5289069;55;1138635;-88
2021/01/03 17:20:28;;;;;;;27.87;11.37;;;;;;;0.77;88.64;100742.97;5281335;55;1138670;-88
2021/01/03 17:25:41;;;;;;;35.27;13.07;;;;;;;0.77;88.59;100745.13;5149158;55;1138375;-89
2021/01/03 17:31:09;;;;;;;47.50;19.13;;;;;;;0.78;88.70;100739.02;5068040;57;1138216;-90
2021/01/03 17:36:55;;;;;;;37.97;16.13;;;;;;;0.77;89.21;100737.77;5013161;57;1138824;-89
2021/01/03 17:42:11;;;;;;;56.77;22.17;;;;;;;0.77;88.68;100741.22;5049719;57;1138282;-88
2021/01/03 17:47:32;;;;;;;31.50;12.67;;;;;;;0.78;88.81;100744.23;5051972;57;1138675;-89
2021/01/03 17:52:42;;;;;;;49.63;18.92;;;;;;;0.78;88.81;100744.23;5018905;57;1138727;-88
2021/01/03 17:57:54;;;;;;;51.00;19.63;;;;;;;0.77;88.78;100741.22;5033475;57;1138503;-89
2021/01/03 18:03:16;;;;;;;45.77;19.00;;;;;;;0.80;88.72;100740.27;5124565;56;1138971;-88
2021/01/03 18:08:22;;;;;;;37.30;13.40;;;;;;;0.84;88.85;100734.06;5248018;54;1138978;-88
2021/01/03 18:13:28;;;;;;;56.10;21.97;;;;;;;0.80;89.07;100737.22;5306344;54;1138473;-89
2021/01/03 18:18:37;;;;;;;42.25;13.40;;;;;;;0.79;88.84;100732.06;5306146;54;1138817;-88
2021/01/03 18:23:43;;;;;;;42.57;15.87;;;;;;;0.78;89.08;100723.40;5330369;54;1138243;-87
2021/01/03 18:28:52;;;;;;;45.00;17.17;;;;;;;0.78;89.21;100721.25;5317675;54;1138180;-88
2021/01/03 18:34:00;;;;;;;57.20;23.53;;;;;;;0.78;89.23;100712.98;5298530;54;1138661;-88
2021/01/03 18:39:07;;;;;;;58.67;21.43;;;;;;;0.75;89.29;100716.17;5289504;54;1138499;-88
2021/01/03 18:44:12;;;;;;;46.03;17.57;;;;;;;0.76;89.49;100725.69;5328676;55;1138217;-88
2021/01/03 18:49:23;;;;;;;73.10;26.30;;;;;;;0.74;89.30;100724.43;5285844;55;1138339;-88
2021/01/03 18:54:28;;;;;;;46.23;16.57;;;;;;;0.75;89.48;100726.58;5278481;55;1138770;-88
2021/01/03 18:59:37;;;;;;;62.27;24.60;;;;;;;0.75;89.35;100738.30;5285403;55;1139105;-88
2021/01/03 19:04:43;;;;;;;66.93;27.13;;;;;;;0.78;89.48;100744.67;5289418;55;1138278;-88
2021/01/03 19:09:51;;;;;;;47.23;17.37;;;;;;;0.78;89.47;100743.38;5288981;54;1138563;-88
2021/01/03 19:14:57;;;;;;;36.83;15.40;;;;;;;0.79;89.24;100744.63;5281827;55;1138374;-90
2021/01/03 19:20:07;;;;;;;70.40;26.93;;;;;;;0.83;89.32;100753.19;5285212;55;1138709;-89
2021/01/03 19:25:14;;;;;;;59.33;21.73;;;;;;;0.79;89.74;100747.23;5288616;54;1138545;-89
2021/01/03 19:30:20;;;;;;;54.77;20.73;;;;;;;0.82;89.34;100747.13;5333657;55;1138181;-89
2021/01/03 19:35:27;;;;;;;51.05;21.25;;;;;;;0.80;89.51;100748.94;5276486;54;1138516;-89
2021/01/03 19:40:32;;;;;;;55.83;24.50;;;;;;;0.78;89.54;100740.33;5190960;55;1138422;-89
2021/01/03 19:45:42;;;;;;;68.83;29.77;;;;;;;0.82;89.63;100738.47;5200504;54;1138533;-91
2021/01/03 19:50:51;;;;;;;56.27;23.37;;;;;;;0.83;89.53;100741.03;5169979;56;1139209;-89
2021/01/03 19:55:57;;;;;;;19.53;6.43;;;;;;;0.83;89.41;100754.05;5196275;56;1138279;-88
2021/01/03 20:01:04;;;;;;;58.90;25.57;;;;;;;0.85;89.82;100750.94;5187048;56;1136331;-89
2021/01/03 20:06:19;;;;;;;81.57;33.13;;;;;;;0.86;89.40;100757.85;5171640;55;1138240;-90
2021/01/03 20:11:35;;;;;;;64.53;24.53;;;;;;;0.89;89.71;100768.17;5184805;55;1138245;-88
2021/01/03 20:16:49;;;;;;;66.20;25.57;;;;;;;0.96;89.43;100772.25;5183325;56;1138509;-90
2021/01/03 20:22:00;;;;;;;62.30;24.13;;;;;;;1.02;89.35;100779.02;5165039;55;1138425;-90
2021/01/03 20:27:09;;;;;;;46.80;17.47;;;;;;;1.06;89.27;100788.43;5189921;56;1138601;-88
2021/01/03 20:32:16;;;;;;;59.57;25.40;;;;;;;1.02;89.14;100784.22;5198496;56;1138150;-89
2021/01/03 20:37:22;;;;;;;56.07;23.03;;;;;;;0.99;89.10;100792.13;5233351;54;1138320;-89
2021/01/03 20:42:27;;;;;;;45.83;17.43;;;;;;;0.99;89.25;100792.98;5277841;55;1138274;-89
2021/01/03 20:47:33;;;;;;;44.03;15.67;;;;;;;0.98;89.28;100783.92;5281083;54;1145002;-90
2021/01/03 20:52:38;;;;;;;47.25;20.60;;;;;;;0.95;89.72;100780.11;5277341;55;1138563;-90
2021/01/03 20:57:44;;;;;;;46.47;17.30;;;;;;;0.98;89.25;100778.71;5286262;55;1138448;-90
2021/01/03 21:02:50;;;;;;;54.33;20.43;;;;;;;1.00;89.13;100771.70;5301787;55;1138274;-90
2021/01/03 21:07:55;;;;;;;62.33;24.13;;;;;;;0.99;89.17;100770.00;5298381;54;1138372;-89
2021/01/03 21:13:01;;;;;;;61.07;24.10;;;;;;;0.99;89.18;100776.51;5286277;55;1138278;-90
2021/01/03 21:18:07;;;;;;;48.13;19.37;;;;;;;0.98;89.25;100778.71;5307549;55;1138239;-90
2021/01/03 21:23:15;;;;;;;55.30;22.03;;;;;;;1.00;89.25;100786.88;5268700;54;1138345;-89
2021/01/03 21:28:36;;;;;;;49.03;18.73;;;;;;;1.03;89.09;100789.38;5286078;54;1138686;-90
2021/01/03 21:33:55;;;;;;;56.13;21.03;;;;;;;1.05;89.05;100785.43;5326612;55;1138886;-89
2021/01/03 21:39:08;;;;;;;47.07;17.00;;;;;;;1.03;88.86;100797.20;5267448;55;1138435;-90
2021/01/03 21:44:45;;;;;;;43.70;18.52;;;;;;;1.05;89.25;100791.94;5328105;55;1138228;-90
2021/01/03 21:50:08;;;;;;;49.37;20.63;;;;;;;1.02;88.97;100795.94;5273771;54;1138662;-90
2021/01/03 21:55:56;;;;;;;44.20;19.93;;;;;;;1.03;89.01;100791.98;5310166;55;1138198;-90
2021/01/03 22:01:42;;;;;;;41.70;17.40;;;;;;;1.02;89.02;100794.19;5280556;55;1138545;-88
2021/01/03 22:07:28;;;;;;;43.50;19.07;;;;;;;0.99;89.05;100787.78;5347569;55;1138234;-89
2021/01/03 22:12:53;;;;;;;49.88;20.52;;;;;;;1.00;88.91;100792.08;5287598;55;1138466;-89
2021/01/03 22:18:12;;;;;;;33.43;14.07;;;;;;;1.01;89.10;100790.33;5281858;54;1138217;-90
2021/01/03 22:23:45;;;;;;;40.53;16.07;;;;;;;0.99;89.02;100793.44;5290837;54;1138482;-89
2021/01/03 22:29:15;;;;;;;47.23;21.00;;;;;;;0.96;88.83;100790.92;5002803;57;1138417;-90
2021/01/03 22:34:42;;;;;;;39.03;17.77;;;;;;;0.95;89.04;100786.17;5015014;57;1138933;-90
2021/01/03 22:39:55;;;;;;;30.47;14.10;;;;;;;0.98;88.91;100793.89;4993396;57;1138913;-90
2021/01/03 22:45:27;;;;;;;41.40;17.07;;;;;;;0.97;89.00;100794.78;4962136;57;1138440;-90
2021/01/03 22:50:54;;;;;;;29.75;13.30;;;;;;;0.96;88.82;100794.38;4993727;57;1138662;-90
2021/01/03 22:56:34;;;;;;;45.77;19.50;;;;;;;1.00;88.96;100784.72;4987732;57;1138795;-90
2021/01/03 23:01:47;;;;;;;19.77;8.63;;;;;;;0.97;89.11;100789.58;4986413;57;1138739;-90
2021/01/03 23:07:10;;;;;;;38.73;17.42;;;;;;;0.94;88.90;100783.17;5187036;56;1136247;-89
2021/01/03 23:12:23;;;;;;;46.30;19.50;;;;;;;0.89;88.94;100777.28;5207632;55;1138327;-90
2021/01/03 23:17:33;;;;;;;47.93;20.57;;;;;;;0.91;89.00;100778.54;5206162;55;1138415;-90
2021/01/03 23:22:43;;;;;;;30.03;13.83;;;;;;;0.92;89.35;100778.45;5207524;55;1138507;-90
2021/01/03 23:28:09;;;;;;;37.03;15.93;;;;;;;0.90;89.10;100771.17;5226424;55;1138693;-89